< < Back
Terminal Aerodrome Forecast


Current Version              Previous Versions:   1  2  3  4  5  6  7  8  9  

Terminal Aerodrome Forecast

705
FTUS42 KMLB 201400 AAA
TAFMCO
TAF AMD
KMCO 201456Z 2015/2112 VRB03KT P6SM FEW035
     FM201700 15005KT P6SM SCT040
     FM210100 VRB02KT P6SM FEW040 BKN250=

Latest METAR

338
SAUS70 KWBC 210200 RRD
MTRMCO
METAR KMCO 210153Z 12004KT 10SM FEW065 OVC230 23/20 A2999 RMK AO2 SLP153
T02280200


USA.gov is the U.S. government's official web portal to all federal, state and local government web resources and services.